createdAt,value
2022-12-01T00:01:37.498Z,49.20
2022-12-01T00:04:05.911Z,42.08
2022-12-01T00:06:35.933Z,45.33
2022-12-01T00:09:22.522Z,41.45
2022-12-01T00:11:57.444Z,34.80
2022-12-01T00:14:26.574Z,28.75
2022-12-01T00:16:54.714Z,26.70
2022-12-01T00:19:26.154Z,26.90
2022-12-01T00:21:56.144Z,26.17
2022-12-01T00:24:25.403Z,25.00
2022-12-01T00:26:54.436Z,25.23
2022-12-01T00:29:23.770Z,29.50
2022-12-01T00:31:53.855Z,26.40
2022-12-01T00:34:24.451Z,25.17
2022-12-01T00:36:54.556Z,26.77
2022-12-01T00:39:22.652Z,24.70
2022-12-01T00:41:50.654Z,25.95
2022-12-01T00:44:18.653Z,25.80
2022-12-01T00:46:48.059Z,26.63
2022-12-01T00:49:19.061Z,25.48
2022-12-01T00:51:52.041Z,23.05
2022-12-01T00:54:23.121Z,29.15
2022-12-01T00:56:52.172Z,26.48
2022-12-01T00:59:24.091Z,27.65
2022-12-01T01:01:55.447Z,28.85
2022-12-01T01:04:25.728Z,25.90
2022-12-01T01:06:53.726Z,26.50
2022-12-01T01:09:21.735Z,24.40
2022-12-01T01:11:55.080Z,25.15
2022-12-01T01:14:24.925Z,25.40
2022-12-01T01:16:57.424Z,23.00
2022-12-01T01:19:25.399Z,28.98
2022-12-01T01:21:53.364Z,25.27
2022-12-01T01:24:22.360Z,34.88
2022-12-01T01:26:51.279Z,25.30
2022-12-01T01:29:20.259Z,25.90
2022-12-01T01:31:48.527Z,29.23
2022-12-01T01:34:18.838Z,31.05
2022-12-01T01:36:46.840Z,31.95
2022-12-01T01:39:15.940Z,29.67
2022-12-01T01:41:44.000Z,31.40
2022-12-01T01:44:54.543Z,27.33
2022-12-01T01:47:27.587Z,30.38
2022-12-01T01:50:06.652Z,23.98
2022-12-01T01:52:36.720Z,21.75
2022-12-01T01:55:04.988Z,19.52
2022-12-01T01:57:35.134Z,20.75
2022-12-01T02:03:47.341Z,21.58
2022-12-01T02:06:18.148Z,23.67
2022-12-01T02:08:46.152Z,21.08
2022-12-01T02:11:48.727Z,20.30
2022-12-01T02:14:35.189Z,21.88
2022-12-01T02:17:10.922Z,18.40
2022-12-01T02:20:03.863Z,23.02
2022-12-01T02:22:42.974Z,20.67
2022-12-01T02:25:21.656Z,18.65
2022-12-01T02:28:14.727Z,19.75
2022-12-01T02:30:46.496Z,18.02
2022-12-01T02:33:20.921Z,24.73
2022-12-01T02:35:53.565Z,25.30
2022-12-01T02:38:30.820Z,20.52
2022-12-01T02:41:06.871Z,19.38
2022-12-01T02:46:12.325Z,17.85
2022-12-01T02:48:43.077Z,17.52
2022-12-01T02:51:15.477Z,21.25
2022-12-01T02:53:44.673Z,22.40
2022-12-01T02:56:16.127Z,18.45
2022-12-01T02:58:44.679Z,18.38
2022-12-01T03:01:50.912Z,21.00
2022-12-01T03:04:47.407Z,19.77
2022-12-01T03:07:33.248Z,22.70
2022-12-01T03:10:07.455Z,22.67
2022-12-01T03:12:42.602Z,20.85
2022-12-01T03:15:18.852Z,16.90
2022-12-01T03:17:55.079Z,21.90
2022-12-01T03:20:29.990Z,21.90
2022-12-01T03:23:02.313Z,19.33
2022-12-01T03:25:32.036Z,18.50
2022-12-01T03:28:22.162Z,18.80
2022-12-01T03:30:53.824Z,19.95
2022-12-01T03:33:28.606Z,18.13
2022-12-01T03:36:00.979Z,19.27
2022-12-01T03:38:30.699Z,19.83
2022-12-01T03:41:03.127Z,15.98
2022-12-01T03:43:35.527Z,16.88
2022-12-01T03:46:11.102Z,16.73
2022-12-01T03:48:41.557Z,13.60
2022-12-01T03:51:15.233Z,17.33
2022-12-01T03:53:52.397Z,16.25
2022-12-01T03:56:22.769Z,16.23
2022-12-01T03:58:56.379Z,15.15
2022-12-01T04:01:26.553Z,13.85
2022-12-01T04:03:55.998Z,14.80
2022-12-01T04:06:24.011Z,12.18
2022-12-01T04:08:52.062Z,14.25
2022-12-01T04:11:37.553Z,13.23
2022-12-01T04:14:05.556Z,12.33
2022-12-01T04:16:35.523Z,11.75
2022-12-01T04:19:08.344Z,11.88
2022-12-01T04:21:36.345Z,10.50
2022-12-01T04:24:44.553Z,10.38
2022-12-01T04:28:19.795Z,11.15
2022-12-01T04:31:12.514Z,10.07
2022-12-01T04:33:40.539Z,16.98
2022-12-01T04:36:11.481Z,28.00
2022-12-01T04:38:40.445Z,18.05
2022-12-01T04:41:11.534Z,19.20
2022-12-01T04:43:46.349Z,12.93
2022-12-01T04:46:19.405Z,14.38
2022-12-01T04:48:47.335Z,13.48
2022-12-01T04:51:17.891Z,14.43
2022-12-01T04:53:48.082Z,14.43
2022-12-01T04:56:20.062Z,18.30
2022-12-01T04:58:48.054Z,15.38
2022-12-01T05:01:18.191Z,16.85
2022-12-01T05:03:52.327Z,15.45
2022-12-01T05:06:23.554Z,19.73
2022-12-01T05:08:52.456Z,14.73
2022-12-01T05:11:21.506Z,18.40
2022-12-01T05:13:50.422Z,16.85
2022-12-01T05:16:21.783Z,17.90
2022-12-01T05:18:51.245Z,18.98
2022-12-01T05:21:18.402Z,18.35
2022-12-01T05:23:48.888Z,22.13
2022-12-01T05:26:17.945Z,20.25
2022-12-01T05:28:45.875Z,22.48
2022-12-01T05:31:13.921Z,24.90
2022-12-01T05:33:41.871Z,22.20
2022-12-01T05:36:10.627Z,21.55
2022-12-01T05:38:38.636Z,21.48
2022-12-01T05:41:08.112Z,21.42
2022-12-01T05:43:36.370Z,17.33
2022-12-01T05:46:04.486Z,19.85
2022-12-01T05:48:32.516Z,26.60
2022-12-01T05:51:01.553Z,24.17
2022-12-01T05:53:29.561Z,22.33
2022-12-01T05:55:57.596Z,20.95
2022-12-01T05:58:26.997Z,22.88
2022-12-01T06:00:55.279Z,30.02
2022-12-01T06:03:23.321Z,25.13
2022-12-01T06:05:51.737Z,31.35
2022-12-01T06:08:21.795Z,34.92
2022-12-01T06:10:51.180Z,33.20
2022-12-01T06:13:19.193Z,31.25
2022-12-01T06:15:57.215Z,24.75
2022-12-01T06:18:27.261Z,27.73
2022-12-01T06:20:59.005Z,18.42
2022-12-01T06:23:31.423Z,20.40
2022-12-01T06:25:59.738Z,17.30
2022-12-01T06:28:28.759Z,16.98
2022-12-01T06:31:03.216Z,16.98
2022-12-01T06:33:32.008Z,15.17
2022-12-01T06:36:01.743Z,17.63
2022-12-01T06:38:32.878Z,15.82
2022-12-01T06:41:01.167Z,16.23
2022-12-01T06:43:29.119Z,25.90
2022-12-01T06:46:02.045Z,23.77
2022-12-01T06:48:32.679Z,33.67
2022-12-01T06:51:05.057Z,29.27
2022-12-01T06:53:34.102Z,31.02
2022-12-01T06:56:02.226Z,32.58
2022-12-01T06:58:30.594Z,43.13
2022-12-01T07:01:00.351Z,31.80
2022-12-01T07:03:28.445Z,55.15
2022-12-01T07:05:58.777Z,47.53
2022-12-01T07:08:27.309Z,38.03
2022-12-01T07:11:00.502Z,40.92
2022-12-01T07:13:33.690Z,38.10
2022-12-01T07:16:04.117Z,40.20
2022-12-01T07:18:33.043Z,31.45
2022-12-01T07:21:02.587Z,30.52
2022-12-01T07:23:36.315Z,26.17
2022-12-01T07:26:06.925Z,26.30
2022-12-01T07:28:35.193Z,19.35
2022-12-01T07:31:07.615Z,25.55
2022-12-01T07:33:36.472Z,25.35
2022-12-01T07:36:05.771Z,31.02
2022-12-01T07:38:35.543Z,23.52
2022-12-01T07:41:04.653Z,23.67
2022-12-01T07:43:36.183Z,21.73
2022-12-01T07:46:14.686Z,19.73
2022-12-01T07:48:47.031Z,19.08
2022-12-01T07:51:17.293Z,21.10
2022-12-01T07:53:46.283Z,24.35
2022-12-01T07:56:17.046Z,27.35
2022-12-01T07:58:45.530Z,25.52
2022-12-01T08:01:17.170Z,24.25
2022-12-01T08:03:46.268Z,19.95
2022-12-01T08:06:14.335Z,22.85
2022-12-01T08:08:42.880Z,24.27
2022-12-01T08:11:13.924Z,21.00
2022-12-01T08:13:46.161Z,23.48
2022-12-01T08:16:19.277Z,22.67
2022-12-01T08:18:47.474Z,18.92
2022-12-01T08:21:18.756Z,18.00
2022-12-01T08:23:47.302Z,24.35
2022-12-01T08:26:17.347Z,18.02
2022-12-01T08:28:46.843Z,18.20
2022-12-01T08:31:18.799Z,21.40
2022-12-01T08:33:47.442Z,20.67
2022-12-01T08:36:15.756Z,20.25
2022-12-01T08:38:45.734Z,26.95
2022-12-01T08:41:14.719Z,23.55
2022-12-01T08:44:00.966Z,25.35
2022-12-01T08:46:33.620Z,24.02
2022-12-01T08:49:02.222Z,27.05
2022-12-01T08:51:30.672Z,23.10
2022-12-01T08:54:00.385Z,21.92
2022-12-01T08:56:30.673Z,22.02
2022-12-01T08:58:59.046Z,21.52
2022-12-01T09:01:27.186Z,24.23
2022-12-01T09:04:08.695Z,26.27
2022-12-01T09:06:41.242Z,23.67
2022-12-01T09:09:14.545Z,29.55
2022-12-01T09:11:43.900Z,24.55
2022-12-01T09:14:12.449Z,19.92
2022-12-01T09:16:41.040Z,21.15
2022-12-01T09:19:13.063Z,22.38
2022-12-01T09:21:42.781Z,21.55
2022-12-01T09:24:12.436Z,21.75
2022-12-01T09:26:40.509Z,22.42
2022-12-01T09:29:10.891Z,25.15
2022-12-01T09:31:40.545Z,21.70
2022-12-01T09:34:13.154Z,22.40
2022-12-01T09:36:41.702Z,22.35
2022-12-01T09:39:13.132Z,26.85
2022-12-01T09:41:46.301Z,21.83
2022-12-01T09:44:22.023Z,20.65
2022-12-01T09:46:54.881Z,21.52
2022-12-01T09:49:32.296Z,25.80
2022-12-01T09:52:01.375Z,22.80
2022-12-01T09:54:30.451Z,21.63
2022-12-01T09:57:00.375Z,22.88
2022-12-01T09:59:34.073Z,24.52
2022-12-01T10:02:04.464Z,23.02
2022-12-01T10:04:37.490Z,22.98
2022-12-01T10:07:12.445Z,19.80
2022-12-01T10:09:48.862Z,19.55
2022-12-01T10:12:19.428Z,17.60
2022-12-01T10:14:49.490Z,19.25
2022-12-01T10:17:29.306Z,15.65
2022-12-01T10:20:04.252Z,17.58
2022-12-01T10:23:10.006Z,20.08
2022-12-01T10:25:46.595Z,19.17
2022-12-01T10:28:36.294Z,20.08
2022-12-01T10:31:12.552Z,16.35
2022-12-01T10:33:47.779Z,20.33
2022-12-01T10:36:17.077Z,20.23
2022-12-01T10:38:45.091Z,19.27
2022-12-01T10:41:16.409Z,16.08
2022-12-01T10:43:47.172Z,19.20
2022-12-01T10:46:23.771Z,19.77
2022-12-01T10:48:56.847Z,19.17
2022-12-01T10:51:27.974Z,18.77
2022-12-01T10:54:00.922Z,19.00
2022-12-01T10:56:29.352Z,16.23
2022-12-01T10:58:59.711Z,17.08
2022-12-01T11:01:31.043Z,17.50
2022-12-01T11:04:14.568Z,20.77
2022-12-01T11:06:50.937Z,16.73
2022-12-01T11:09:26.213Z,20.63
2022-12-01T11:11:59.426Z,19.30
2022-12-01T11:14:36.520Z,19.95
2022-12-01T11:17:18.045Z,19.10
2022-12-01T11:19:46.268Z,19.00
2022-12-01T11:22:23.204Z,18.10
2022-12-01T11:24:59.612Z,17.80
2022-12-01T11:27:30.948Z,16.50
2022-12-01T11:30:02.822Z,16.30
2022-12-01T11:32:35.093Z,16.27
2022-12-01T11:35:07.160Z,17.92
2022-12-01T11:37:39.550Z,17.20
2022-12-01T11:40:14.962Z,16.58
2022-12-01T11:42:47.774Z,22.60
2022-12-01T11:45:27.284Z,15.50
2022-12-01T11:48:05.042Z,11.98
2022-12-01T11:50:35.513Z,13.75
2022-12-01T11:53:05.714Z,17.55
2022-12-01T11:55:34.245Z,15.45
2022-12-01T11:58:05.246Z,16.75
2022-12-01T12:00:44.920Z,20.23
2022-12-01T12:03:22.598Z,18.63
2022-12-01T12:06:31.798Z,15.00
2022-12-01T12:09:25.820Z,13.73
2022-12-01T12:12:08.370Z,15.02
2022-12-01T12:14:48.620Z,17.38
2022-12-01T12:17:29.386Z,47.33
2022-12-01T12:20:09.617Z,23.60
2022-12-01T12:22:55.199Z,24.50
2022-12-01T12:25:31.783Z,17.58
2022-12-01T12:30:43.870Z,15.05
2022-12-01T12:33:38.466Z,14.38
2022-12-01T12:36:16.350Z,18.20
2022-12-01T12:38:58.314Z,15.73
2022-12-01T12:41:32.989Z,17.63
2022-12-01T12:44:35.384Z,15.20
2022-12-01T12:47:10.637Z,17.33
2022-12-01T12:49:45.545Z,16.67
2022-12-01T12:52:17.249Z,24.85
2022-12-01T12:54:51.963Z,19.98
2022-12-01T12:57:28.617Z,18.35
2022-12-01T13:00:01.458Z,20.25
2022-12-01T13:02:36.265Z,17.15
2022-12-01T13:05:10.430Z,16.83
2022-12-01T13:07:44.256Z,17.70
2022-12-01T13:10:23.216Z,22.02
2022-12-01T13:12:58.195Z,18.40
2022-12-01T13:15:30.732Z,18.05
2022-12-01T13:18:04.706Z,20.02
2022-12-01T13:20:35.166Z,140.52
2022-12-01T13:23:04.334Z,26.95
2022-12-01T13:25:36.155Z,21.88
2022-12-01T13:28:06.750Z,23.50
2022-12-01T13:30:36.179Z,23.85
2022-12-01T13:33:06.708Z,21.38
2022-12-01T13:35:37.493Z,23.65
2022-12-01T13:38:24.896Z,20.40
2022-12-01T13:41:11.584Z,21.67
2022-12-01T13:43:54.490Z,21.48
2022-12-01T13:46:27.764Z,21.73
2022-12-01T13:48:58.079Z,31.90
2022-12-01T13:51:27.054Z,29.55
2022-12-01T13:54:05.507Z,29.15
2022-12-01T13:56:41.153Z,24.85
2022-12-01T13:59:40.815Z,384.10
2022-12-01T14:02:18.375Z,36.33
2022-12-01T14:04:48.336Z,30.02
2022-12-01T14:07:35.836Z,23.50
2022-12-01T14:10:26.397Z,24.42
2022-12-01T14:12:59.405Z,30.63
2022-12-01T14:15:40.427Z,39.97
2022-12-01T14:18:23.861Z,31.63
2022-12-01T14:20:52.219Z,27.60
2022-12-01T14:23:29.294Z,26.50
2022-12-01T14:26:12.856Z,28.15
2022-12-01T14:29:10.984Z,36.03
2022-12-01T14:32:19.468Z,44.13
2022-12-01T14:34:52.697Z,41.10
2022-12-01T14:37:23.021Z,40.92
2022-12-01T14:39:57.328Z,40.65
2022-12-01T14:42:48.490Z,35.00
2022-12-01T14:45:23.038Z,40.08
2022-12-01T14:47:58.236Z,46.95
2022-12-01T14:50:35.461Z,46.95
2022-12-01T14:53:10.373Z,122.35
2022-12-01T14:55:41.720Z,71.63
2022-12-01T14:58:16.698Z,263.60
2022-12-01T15:00:57.974Z,68.05
2022-12-01T15:03:32.006Z,27.55
2022-12-01T15:06:01.717Z,29.25
2022-12-01T15:09:04.109Z,30.10
2022-12-01T15:11:26.068Z,37.92
2022-12-01T15:13:55.613Z,24.95
2022-12-01T15:16:27.501Z,23.08
2022-12-01T15:18:57.893Z,28.88
2022-12-01T15:21:29.396Z,24.20
2022-12-01T15:24:00.897Z,26.20
2022-12-01T15:26:32.055Z,22.00
2022-12-01T15:29:14.627Z,23.13
2022-12-01T15:31:44.063Z,25.80
2022-12-01T15:34:17.285Z,27.60
2022-12-01T15:36:48.538Z,29.00
2022-12-01T15:39:18.221Z,28.88
2022-12-01T15:41:53.813Z,33.38
2022-12-01T15:44:27.327Z,35.28
2022-12-01T15:46:55.809Z,36.63
2022-12-01T15:49:29.705Z,34.47
2022-12-01T15:52:12.515Z,32.42
2022-12-01T15:54:41.046Z,79.97
2022-12-01T15:57:09.387Z,85.28
2022-12-01T15:59:45.072Z,45.38
2022-12-01T16:02:27.435Z,51.38
2022-12-01T16:05:05.527Z,46.20
2022-12-01T16:08:12.126Z,49.40
2022-12-01T16:10:30.756Z,44.78
2022-12-01T16:13:47.713Z,42.65
2022-12-01T16:16:41.040Z,39.03
2022-12-01T16:19:28.176Z,42.45
2022-12-01T16:22:00.473Z,41.50
2022-12-01T16:24:32.442Z,43.65
2022-12-01T16:27:03.397Z,47.40
2022-12-01T16:29:35.672Z,41.25
2022-12-01T16:32:20.152Z,36.78
2022-12-01T16:34:50.214Z,38.90
2022-12-01T16:37:18.780Z,47.83
2022-12-01T16:39:48.749Z,46.22
2022-12-01T16:42:18.828Z,51.00
2022-12-01T16:44:48.721Z,50.67
2022-12-01T16:47:20.407Z,51.08
2022-12-01T16:49:48.826Z,53.65
2022-12-01T16:52:43.546Z,50.45
2022-12-01T16:55:26.013Z,52.30
2022-12-01T16:57:55.456Z,57.88
2022-12-01T17:00:24.007Z,56.63
2022-12-01T17:02:53.725Z,60.67
2022-12-01T17:05:22.084Z,51.35
2022-12-01T17:07:50.425Z,50.72
2022-12-01T17:10:20.170Z,59.17
2022-12-01T17:12:48.204Z,57.42
2022-12-01T17:15:16.407Z,56.90
2022-12-01T17:17:44.563Z,58.50
2022-12-01T17:20:13.204Z,61.63
2022-12-01T17:22:41.273Z,60.65
2022-12-01T17:25:10.877Z,58.88
2022-12-01T17:27:42.004Z,62.25
2022-12-01T17:30:11.017Z,58.22
2022-12-01T17:32:39.618Z,58.90
2022-12-01T17:35:08.620Z,59.85
2022-12-01T17:37:38.669Z,56.05
2022-12-01T17:40:08.793Z,56.58
2022-12-01T17:42:37.180Z,56.58
2022-12-01T17:45:07.925Z,63.13
2022-12-01T17:47:36.154Z,65.72
2022-12-01T17:50:04.557Z,63.03
2022-12-01T17:52:32.758Z,91.43
2022-12-01T17:55:00.919Z,69.93
2022-12-01T17:57:29.080Z,67.88
2022-12-01T17:59:57.264Z,55.97
2022-12-01T18:02:26.674Z,58.92
2022-12-01T18:04:55.058Z,72.85
2022-12-01T18:07:23.380Z,99.03
2022-12-01T18:09:51.562Z,85.18
2022-12-01T18:12:19.828Z,67.15
2022-12-01T18:14:48.045Z,72.13
2022-12-01T18:20:46.558Z,52.30
2022-12-01T18:23:14.802Z,66.78
2022-12-01T18:25:42.937Z,70.93
2022-12-01T18:28:11.474Z,62.90
2022-12-01T18:46:40.413Z,69.97
2022-12-01T18:53:23.142Z,70.57
2022-12-01T18:55:51.424Z,71.65
2022-12-01T18:58:19.477Z,62.83
2022-12-01T19:00:47.635Z,68.93
2022-12-01T19:03:17.192Z,65.78
2022-12-01T19:05:45.302Z,73.43
2022-12-01T19:08:13.435Z,80.45
2022-12-01T19:10:41.605Z,81.07
2022-12-01T19:13:09.769Z,86.13
2022-12-01T19:15:38.570Z,102.68
2022-12-01T19:18:06.731Z,90.57
2022-12-01T19:20:39.766Z,98.40
2022-12-01T19:23:07.817Z,110.82
2022-12-01T19:25:38.915Z,76.82
2022-12-01T19:28:07.148Z,76.28
2022-12-01T19:30:35.609Z,72.32
2022-12-01T19:33:03.790Z,68.45
2022-12-01T19:35:32.825Z,70.20
2022-12-01T19:38:02.272Z,75.35
2022-12-01T19:40:39.124Z,75.93
2022-12-01T19:43:07.388Z,98.60
2022-12-01T19:45:38.691Z,109.22
2022-12-01T19:48:07.826Z,121.00
2022-12-01T19:50:36.698Z,106.00
2022-12-01T19:53:06.263Z,125.35
2022-12-01T19:55:34.671Z,114.18
2022-12-01T19:58:04.122Z,121.57
2022-12-01T20:00:32.775Z,124.07
2022-12-01T20:03:01.806Z,110.68
2022-12-01T20:05:29.941Z,118.38
2022-12-01T20:07:58.498Z,87.60
2022-12-01T20:10:28.094Z,85.18
2022-12-01T20:12:56.276Z,94.03
2022-12-01T20:15:24.547Z,102.25
2022-12-01T20:17:53.926Z,110.10
2022-12-01T20:20:26.126Z,123.75
2022-12-01T20:22:54.404Z,122.30
2022-12-01T20:25:22.835Z,122.70
2022-12-01T20:27:52.513Z,121.25
2022-12-01T20:30:20.789Z,130.77
2022-12-01T20:32:49.978Z,114.70
2022-12-01T20:35:20.294Z,124.03
2022-12-01T20:37:52.823Z,115.28
2022-12-01T20:40:22.436Z,108.05
2022-12-01T20:42:52.544Z,121.75
2022-12-01T20:45:21.114Z,105.07
2022-12-01T20:47:51.888Z,84.63
2022-12-01T20:50:20.298Z,60.80
2022-12-01T20:52:48.585Z,60.30
2022-12-01T20:55:16.926Z,61.55
2022-12-01T20:57:45.638Z,64.38
2022-12-01T21:00:18.670Z,72.07
2022-12-01T21:02:48.160Z,74.57
2022-12-01T21:05:16.437Z,71.28
2022-12-01T21:07:44.951Z,74.10
2022-12-01T21:10:18.483Z,66.40
2022-12-01T21:13:09.447Z,75.70
2022-12-01T21:15:52.179Z,79.75
2022-12-01T21:18:23.430Z,86.78
2022-12-01T21:20:57.748Z,82.38
2022-12-01T21:23:28.328Z,91.15
2022-12-01T21:25:57.258Z,84.30
2022-12-01T21:28:27.109Z,125.47
2022-12-01T21:31:01.367Z,140.32
2022-12-01T21:33:33.367Z,127.65
2022-12-01T21:36:03.221Z,137.57
2022-12-01T21:38:33.239Z,122.30
2022-12-01T21:41:02.884Z,116.85
2022-12-01T21:43:37.945Z,116.28
2022-12-01T21:46:16.276Z,115.85
2022-12-01T21:48:46.110Z,117.57
2022-12-01T21:51:20.127Z,111.43
2022-12-01T21:53:49.203Z,114.60
2022-12-01T21:56:22.156Z,119.35
2022-12-01T21:58:52.893Z,120.57
2022-12-01T22:01:28.389Z,129.07
2022-12-01T22:04:01.790Z,125.18
2022-12-01T22:06:37.037Z,123.95
2022-12-01T22:09:20.715Z,120.47
2022-12-01T22:11:52.670Z,128.80
2022-12-01T22:14:23.030Z,119.18
2022-12-01T22:16:55.990Z,121.25
2022-12-01T22:19:28.852Z,126.22
2022-12-01T22:22:01.890Z,116.13
2022-12-01T22:24:45.009Z,107.20
2022-12-01T22:27:27.334Z,106.00
2022-12-01T22:29:59.166Z,92.10
2022-12-01T22:32:53.368Z,97.93
2022-12-01T22:35:30.137Z,92.15
2022-12-01T22:38:20.203Z,86.28
2022-12-01T22:40:56.063Z,90.75
2022-12-01T22:43:31.344Z,95.25
2022-12-01T22:46:11.610Z,98.97
2022-12-01T22:48:46.115Z,95.35
2022-12-01T22:51:23.891Z,93.65
2022-12-01T22:53:58.729Z,87.13
2022-12-01T22:56:40.547Z,86.45
2022-12-01T22:59:16.231Z,97.25
2022-12-01T23:01:50.180Z,88.57
2022-12-01T23:04:27.375Z,86.95
2022-12-01T23:06:59.678Z,80.53
2022-12-01T23:09:33.330Z,85.68
2022-12-01T23:12:07.106Z,93.20
2022-12-01T23:14:35.785Z,86.57
2022-12-01T23:17:08.286Z,83.45
2022-12-01T23:19:37.706Z,90.82
2022-12-01T23:22:05.865Z,83.78
2022-12-01T23:24:35.097Z,86.22
2022-12-01T23:27:03.252Z,84.15
2022-12-01T23:29:32.064Z,87.57
2022-12-01T23:32:00.259Z,81.07
2022-12-01T23:34:29.403Z,85.20
2022-12-01T23:36:58.813Z,85.20
2022-12-01T23:39:31.917Z,86.05
2022-12-01T23:42:00.339Z,79.90
2022-12-01T23:44:45.797Z,74.22
2022-12-01T23:47:19.023Z,74.07
2022-12-01T23:49:48.264Z,77.15
2022-12-01T23:52:21.521Z,77.90
2022-12-01T23:54:50.065Z,85.38
2022-12-01T23:57:23.853Z,77.10
2022-12-01T23:59:56.003Z,77.15
